sensor_id;sensor_type;location;lat;lon;timestamp;temperature;humidity
3705;DHT22;1868;48.918;9.438;2023-09-12T00:01:37;17.30;97.40
3705;DHT22;1868;48.918;9.438;2023-09-12T00:04:06;17.30;97.40
3705;DHT22;1868;48.918;9.438;2023-09-12T00:06:35;17.20;97.40
3705;DHT22;1868;48.918;9.438;2023-09-12T00:09:07;17.20;97.40
3705;DHT22;1868;48.918;9.438;2023-09-12T00:11:37;17.20;97.40
3705;DHT22;1868;48.918;9.438;2023-09-12T00:14:08;17.20;97.40
3705;DHT22;1868;48.918;9.438;2023-09-12T00:16:38;17.20;97.40
3705;DHT22;1868;48.918;9.438;2023-09-12T00:19:06;17.20;97.40
3705;DHT22;1868;48.918;9.438;2023-09-12T00:21:35;17.20;97.40
3705;DHT22;1868;48.918;9.438;2023-09-12T00:24:07;17.10;97.40
3705;DHT22;1868;48.918;9.438;2023-09-12T00:26:44;17.10;97.40
3705;DHT22;1868;48.918;9.438;2023-09-12T00:29:13;17.00;97.40
3705;DHT22;1868;48.918;9.438;2023-09-12T00:31:43;17.00;97.40
3705;DHT22;1868;48.918;9.438;2023-09-12T00:34:16;17.00;97.40
3705;DHT22;1868;48.918;9.438;2023-09-12T00:36:45;17.00;97.40
3705;DHT22;1868;48.918;9.438;2023-09-12T00:39:15;16.90;97.40
3705;DHT22;1868;48.918;9.438;2023-09-12T00:41:44;16.90;97.40
3705;DHT22;1868;48.918;9.438;2023-09-12T00:44:13;16.90;97.40
3705;DHT22;1868;48.918;9.438;2023-09-12T00:46:48;16.90;97.40
3705;DHT22;1868;48.918;9.438;2023-09-12T00:49:20;16.90;97.40
3705;DHT22;1868;48.918;9.438;2023-09-12T00:51:50;16.90;97.40
3705;DHT22;1868;48.918;9.438;2023-09-12T00:54:21;16.80;97.40
3705;DHT22;1868;48.918;9.438;2023-09-12T00:56:50;16.80;97.40
3705;DHT22;1868;48.918;9.438;2023-09-12T00:59:20;16.80;97.40
3705;DHT22;1868;48.918;9.438;2023-09-12T01:01:48;16.80;97.40
3705;DHT22;1868;48.918;9.438;2023-09-12T01:04:19;16.70;97.40
3705;DHT22;1868;48.918;9.438;2023-09-12T01:07:02;16.70;97.40
3705;DHT22;1868;48.918;9.438;2023-09-12T01:09:34;16.70;97.40
3705;DHT22;1868;48.918;9.438;2023-09-12T01:12:04;16.70;97.40
3705;DHT22;1868;48.918;9.438;2023-09-12T01:14:33;16.70;97.40
3705;DHT22;1868;48.918;9.438;2023-09-12T01:17:05;16.60;97.40
3705;DHT22;1868;48.918;9.438;2023-09-12T01:19:34;16.70;97.40
3705;DHT22;1868;48.918;9.438;2023-09-12T01:22:21;16.70;97.40
3705;DHT22;1868;48.918;9.438;2023-09-12T01:25:42;16.70;97.40
3705;DHT22;1868;48.918;9.438;2023-09-12T01:28:34;16.70;97.40
3705;DHT22;1868;48.918;9.438;2023-09-12T01:31:04;16.70;97.40
3705;DHT22;1868;48.918;9.438;2023-09-12T01:33:33;16.70;97.40
3705;DHT22;1868;48.918;9.438;2023-09-12T01:36:01;16.60;97.40
3705;DHT22;1868;48.918;9.438;2023-09-12T01:38:30;16.60;97.40
3705;DHT22;1868;48.918;9.438;2023-09-12T01:40:59;16.60;97.40
3705;DHT22;1868;48.918;9.438;2023-09-12T01:43:32;16.50;97.40
3705;DHT22;1868;48.918;9.438;2023-09-12T01:46:00;16.50;97.40
3705;DHT22;1868;48.918;9.438;2023-09-12T01:48:33;16.50;97.40
3705;DHT22;1868;48.918;9.438;2023-09-12T01:51:03;16.50;97.40
3705;DHT22;1868;48.918;9.438;2023-09-12T01:53:33;16.40;97.40
3705;DHT22;1868;48.918;9.438;2023-09-12T01:56:03;16.40;97.40
3705;DHT22;1868;48.918;9.438;2023-09-12T01:58:35;16.40;97.40
3705;DHT22;1868;48.918;9.438;2023-09-12T02:01:04;16.40;97.40
3705;DHT22;1868;48.918;9.438;2023-09-12T02:03:35;16.40;97.40
3705;DHT22;1868;48.918;9.438;2023-09-12T02:06:09;16.40;97.40
3705;DHT22;1868;48.918;9.438;2023-09-12T02:08:38;16.40;97.40
3705;DHT22;1868;48.918;9.438;2023-09-12T02:11:08;16.30;97.40
3705;DHT22;1868;48.918;9.438;2023-09-12T02:13:40;16.30;97.40
3705;DHT22;1868;48.918;9.438;2023-09-12T02:16:14;16.30;97.40
3705;DHT22;1868;48.918;9.438;2023-09-12T02:18:43;16.30;97.40
3705;DHT22;1868;48.918;9.438;2023-09-12T02:21:13;16.30;97.40
3705;DHT22;1868;48.918;9.438;2023-09-12T02:23:42;16.30;97.40
3705;DHT22;1868;48.918;9.438;2023-09-12T02:26:15;16.30;97.40
3705;DHT22;1868;48.918;9.438;2023-09-12T02:28:46;16.30;97.40
3705;DHT22;1868;48.918;9.438;2023-09-12T02:31:16;16.20;97.40
3705;DHT22;1868;48.918;9.438;2023-09-12T02:33:45;16.20;97.40
3705;DHT22;1868;48.918;9.438;2023-09-12T02:36:16;16.20;97.40
3705;DHT22;1868;48.918;9.438;2023-09-12T02:38:47;16.10;97.40
3705;DHT22;1868;48.918;9.438;2023-09-12T02:41:16;16.10;97.40
3705;DHT22;1868;48.918;9.438;2023-09-12T02:43:48;16.10;97.40
3705;DHT22;1868;48.918;9.438;2023-09-12T02:46:18;16.10;97.40
3705;DHT22;1868;48.918;9.438;2023-09-12T02:48:48;16.10;97.40
3705;DHT22;1868;48.918;9.438;2023-09-12T02:51:17;16.00;97.40
3705;DHT22;1868;48.918;9.438;2023-09-12T02:53:45;16.10;97.40
3705;DHT22;1868;48.918;9.438;2023-09-12T02:56:15;16.00;97.40
3705;DHT22;1868;48.918;9.438;2023-09-12T02:58:47;16.00;97.40
3705;DHT22;1868;48.918;9.438;2023-09-12T03:01:16;16.00;97.40
3705;DHT22;1868;48.918;9.438;2023-09-12T03:03:49;16.00;97.40
3705;DHT22;1868;48.918;9.438;2023-09-12T03:06:19;16.00;97.40
3705;DHT22;1868;48.918;9.438;2023-09-12T03:08:48;15.90;97.40
3705;DHT22;1868;48.918;9.438;2023-09-12T03:11:17;15.90;97.40
3705;DHT22;1868;48.918;9.438;2023-09-12T03:13:50;15.90;97.40
3705;DHT22;1868;48.918;9.438;2023-09-12T03:16:19;15.90;97.40
3705;DHT22;1868;48.918;9.438;2023-09-12T03:18:50;15.90;97.40
3705;DHT22;1868;48.918;9.438;2023-09-12T03:21:19;15.90;97.40
3705;DHT22;1868;48.918;9.438;2023-09-12T03:23:48;15.90;97.40
3705;DHT22;1868;48.918;9.438;2023-09-12T03:26:17;15.90;97.40
3705;DHT22;1868;48.918;9.438;2023-09-12T03:28:50;15.80;97.40
3705;DHT22;1868;48.918;9.438;2023-09-12T03:31:20;15.80;97.40
3705;DHT22;1868;48.918;9.438;2023-09-12T03:33:49;15.80;97.40
3705;DHT22;1868;48.918;9.438;2023-09-12T03:36:18;15.80;97.40
3705;DHT22;1868;48.918;9.438;2023-09-12T03:38:47;15.80;97.40
3705;DHT22;1868;48.918;9.438;2023-09-12T03:41:17;15.80;97.40
3705;DHT22;1868;48.918;9.438;2023-09-12T03:43:45;15.80;97.40
3705;DHT22;1868;48.918;9.438;2023-09-12T03:46:19;15.80;97.40
3705;DHT22;1868;48.918;9.438;2023-09-12T03:48:49;15.70;97.40
3705;DHT22;1868;48.918;9.438;2023-09-12T03:51:19;15.70;97.40
3705;DHT22;1868;48.918;9.438;2023-09-12T03:53:48;15.70;97.40
3705;DHT22;1868;48.918;9.438;2023-09-12T03:56:17;15.70;97.40
3705;DHT22;1868;48.918;9.438;2023-09-12T03:58:47;15.70;97.40
3705;DHT22;1868;48.918;9.438;2023-09-12T04:01:16;15.70;97.40
3705;DHT22;1868;48.918;9.438;2023-09-12T04:03:47;15.70;97.40
3705;DHT22;1868;48.918;9.438;2023-09-12T04:06:16;15.70;97.40
3705;DHT22;1868;48.918;9.438;2023-09-12T04:08:45;15.60;97.40
3705;DHT22;1868;48.918;9.438;2023-09-12T04:11:17;15.60;97.40
3705;DHT22;1868;48.918;9.438;2023-09-12T04:13:57;15.60;97.40
3705;DHT22;1868;48.918;9.438;2023-09-12T04:16:33;15.60;97.40
3705;DHT22;1868;48.918;9.438;2023-09-12T04:19:02;15.60;97.40
3705;DHT22;1868;48.918;9.438;2023-09-12T04:21:33;15.50;97.40
3705;DHT22;1868;48.918;9.438;2023-09-12T04:24:02;15.50;97.40
3705;DHT22;1868;48.918;9.438;2023-09-12T04:26:32;15.50;97.40
3705;DHT22;1868;48.918;9.438;2023-09-12T04:29:01;15.60;97.40
3705;DHT22;1868;48.918;9.438;2023-09-12T04:31:32;16.00;97.40
3705;DHT22;1868;48.918;9.438;2023-09-12T04:34:02;16.10;97.40
3705;DHT22;1868;48.918;9.438;2023-09-12T04:36:31;16.10;97.40
3705;DHT22;1868;48.918;9.438;2023-09-12T04:39:00;16.10;97.40
3705;DHT22;1868;48.918;9.438;2023-09-12T04:41:30;16.00;97.40
3705;DHT22;1868;48.918;9.438;2023-09-12T04:44:00;16.00;97.40
3705;DHT22;1868;48.918;9.438;2023-09-12T04:46:33;15.90;97.40
3705;DHT22;1868;48.918;9.438;2023-09-12T04:49:02;15.90;97.40
3705;DHT22;1868;48.918;9.438;2023-09-12T04:51:31;15.80;97.40
3705;DHT22;1868;48.918;9.438;2023-09-12T04:54:03;15.80;97.40
3705;DHT22;1868;48.918;9.438;2023-09-12T04:56:33;15.80;97.40
3705;DHT22;1868;48.918;9.438;2023-09-12T04:59:04;15.80;97.40
3705;DHT22;1868;48.918;9.438;2023-09-12T05:01:35;15.80;97.40
3705;DHT22;1868;48.918;9.438;2023-09-12T05:04:04;15.80;97.40
3705;DHT22;1868;48.918;9.438;2023-09-12T05:06:32;15.90;97.40
3705;DHT22;1868;48.918;9.438;2023-09-12T05:09:02;15.90;97.40
3705;DHT22;1868;48.918;9.438;2023-09-12T05:11:34;16.00;97.40
3705;DHT22;1868;48.918;9.438;2023-09-12T05:14:03;16.00;97.40
3705;DHT22;1868;48.918;9.438;2023-09-12T05:16:31;16.10;97.40
3705;DHT22;1868;48.918;9.438;2023-09-12T05:19:02;16.10;97.40
3705;DHT22;1868;48.918;9.438;2023-09-12T05:21:33;16.20;97.40
3705;DHT22;1868;48.918;9.438;2023-09-12T05:24:03;16.30;97.40
3705;DHT22;1868;48.918;9.438;2023-09-12T05:26:31;16.40;97.40
3705;DHT22;1868;48.918;9.438;2023-09-12T05:29:00;16.50;97.40
3705;DHT22;1868;48.918;9.438;2023-09-12T05:31:30;16.60;97.40
3705;DHT22;1868;48.918;9.438;2023-09-12T05:34:02;16.60;97.40
3705;DHT22;1868;48.918;9.438;2023-09-12T05:36:32;16.80;97.40
3705;DHT22;1868;48.918;9.438;2023-09-12T05:39:02;16.90;97.40
3705;DHT22;1868;48.918;9.438;2023-09-12T05:41:33;17.00;97.40
3705;DHT22;1868;48.918;9.438;2023-09-12T05:44:02;17.10;97.40
3705;DHT22;1868;48.918;9.438;2023-09-12T05:46:31;17.30;97.40
3705;DHT22;1868;48.918;9.438;2023-09-12T05:49:01;17.30;97.40
3705;DHT22;1868;48.918;9.438;2023-09-12T05:51:30;17.50;97.40
3705;DHT22;1868;48.918;9.438;2023-09-12T05:54:01;17.60;97.40
3705;DHT22;1868;48.918;9.438;2023-09-12T05:56:35;17.70;97.40
3705;DHT22;1868;48.918;9.438;2023-09-12T05:59:06;17.90;97.40
3705;DHT22;1868;48.918;9.438;2023-09-12T06:01:36;18.20;97.40
3705;DHT22;1868;48.918;9.438;2023-09-12T06:04:09;18.60;97.40
3705;DHT22;1868;48.918;9.438;2023-09-12T06:06:39;19.10;97.40
3705;DHT22;1868;48.918;9.438;2023-09-12T06:09:08;19.50;97.40
3705;DHT22;1868;48.918;9.438;2023-09-12T06:11:37;20.10;97.40
3705;DHT22;1868;48.918;9.438;2023-09-12T06:14:05;20.40;97.40
3705;DHT22;1868;48.918;9.438;2023-09-12T06:16:34;20.50;97.40
3705;DHT22;1868;48.918;9.438;2023-09-12T06:19:06;20.50;97.40
3705;DHT22;1868;48.918;9.438;2023-09-12T06:21:41;20.90;97.40
3705;DHT22;1868;48.918;9.438;2023-09-12T06:24:15;21.00;97.40
3705;DHT22;1868;48.918;9.438;2023-09-12T06:26:45;21.30;97.40
3705;DHT22;1868;48.918;9.438;2023-09-12T06:33:06;21.80;97.40
3705;DHT22;1868;48.918;9.438;2023-09-12T06:39:51;23.30;97.40
3705;DHT22;1868;48.918;9.438;2023-09-12T06:42:19;24.10;97.40
3705;DHT22;1868;48.918;9.438;2023-09-12T06:44:48;24.40;97.40
3705;DHT22;1868;48.918;9.438;2023-09-12T06:47:19;25.00;97.40
3705;DHT22;1868;48.918;9.438;2023-09-12T06:49:47;25.60;97.40
3705;DHT22;1868;48.918;9.438;2023-09-12T06:52:22;25.70;97.40
3705;DHT22;1868;48.918;9.438;2023-09-12T06:54:52;25.60;97.40
3705;DHT22;1868;48.918;9.438;2023-09-12T06:57:23;25.80;97.40
3705;DHT22;1868;48.918;9.438;2023-09-12T06:59:52;26.20;97.40
3705;DHT22;1868;48.918;9.438;2023-09-12T07:02:20;26.50;97.40
3705;DHT22;1868;48.918;9.438;2023-09-12T07:04:49;26.80;97.40
3705;DHT22;1868;48.918;9.438;2023-09-12T07:07:18;27.10;97.40
3705;DHT22;1868;48.918;9.438;2023-09-12T07:09:47;27.00;97.40
3705;DHT22;1868;48.918;9.438;2023-09-12T07:12:18;27.00;97.40
3705;DHT22;1868;48.918;9.438;2023-09-12T07:14:47;26.90;97.40
3705;DHT22;1868;48.918;9.438;2023-09-12T07:17:19;26.90;97.40
3705;DHT22;1868;48.918;9.438;2023-09-12T07:19:47;26.70;97.40
3705;DHT22;1868;48.918;9.438;2023-09-12T07:22:18;26.70;97.40
3705;DHT22;1868;48.918;9.438;2023-09-12T07:24:47;27.10;97.40
3705;DHT22;1868;48.918;9.438;2023-09-12T07:27:17;27.80;97.40
3705;DHT22;1868;48.918;9.438;2023-09-12T07:29:46;28.70;97.40
3705;DHT22;1868;48.918;9.438;2023-09-12T07:32:16;29.20;96.90
3705;DHT22;1868;48.918;9.438;2023-09-12T07:34:46;29.60;96.30
3705;DHT22;1868;48.918;9.438;2023-09-12T07:37:17;30.40;94.10
3705;DHT22;1868;48.918;9.438;2023-09-12T07:39:46;31.00;93.80
3705;DHT22;1868;48.918;9.438;2023-09-12T07:42:21;31.50;92.30
3705;DHT22;1868;48.918;9.438;2023-09-12T07:44:51;31.30;92.00
3705;DHT22;1868;48.918;9.438;2023-09-12T07:47:20;31.20;92.70
3705;DHT22;1868;48.918;9.438;2023-09-12T07:49:53;32.00;91.40
3705;DHT22;1868;48.918;9.438;2023-09-12T07:52:22;32.80;86.00
3705;DHT22;1868;48.918;9.438;2023-09-12T07:54:51;32.80;84.00
3705;DHT22;1868;48.918;9.438;2023-09-12T07:57:27;33.60;85.50
3705;DHT22;1868;48.918;9.438;2023-09-12T07:59:57;34.00;84.70
3705;DHT22;1868;48.918;9.438;2023-09-12T08:02:27;34.00;83.40
3705;DHT22;1868;48.918;9.438;2023-09-12T08:04:56;33.90;80.20
3705;DHT22;1868;48.918;9.438;2023-09-12T08:07:26;33.90;82.30
3705;DHT22;1868;48.918;9.438;2023-09-12T08:09:57;34.40;82.10
3705;DHT22;1868;48.918;9.438;2023-09-12T08:12:28;34.60;78.00
3705;DHT22;1868;48.918;9.438;2023-09-12T08:14:57;35.10;78.40
3705;DHT22;1868;48.918;9.438;2023-09-12T08:17:27;35.70;75.60
3705;DHT22;1868;48.918;9.438;2023-09-12T08:19:56;35.90;73.00
3705;DHT22;1868;48.918;9.438;2023-09-12T08:22:27;36.30;71.30
3705;DHT22;1868;48.918;9.438;2023-09-12T08:24:55;36.50;69.60
3705;DHT22;1868;48.918;9.438;2023-09-12T08:27:27;36.30;70.00
3705;DHT22;1868;48.918;9.438;2023-09-12T08:29:55;36.70;66.80
3705;DHT22;1868;48.918;9.438;2023-09-12T08:32:26;37.10;65.70
3705;DHT22;1868;48.918;9.438;2023-09-12T08:34:54;36.90;67.00
3705;DHT22;1868;48.918;9.438;2023-09-12T08:37:23;36.20;65.50
3705;DHT22;1868;48.918;9.438;2023-09-12T08:39:54;35.70;71.50
3705;DHT22;1868;48.918;9.438;2023-09-12T08:42:27;35.50;71.50
3705;DHT22;1868;48.918;9.438;2023-09-12T08:45:01;36.20;71.30
3705;DHT22;1868;48.918;9.438;2023-09-12T08:47:32;36.90;68.70
3705;DHT22;1868;48.918;9.438;2023-09-12T08:50:05;36.80;65.00
3705;DHT22;1868;48.918;9.438;2023-09-12T08:52:35;36.10;65.10
3705;DHT22;1868;48.918;9.438;2023-09-12T08:55:09;36.00;66.40
3705;DHT22;1868;48.918;9.438;2023-09-12T08:57:41;36.00;67.90
3705;DHT22;1868;48.918;9.438;2023-09-12T09:00:13;35.50;66.80
3705;DHT22;1868;48.918;9.438;2023-09-12T09:02:43;34.70;69.40
3705;DHT22;1868;48.918;9.438;2023-09-12T09:05:12;34.10;70.50
3705;DHT22;1868;48.918;9.438;2023-09-12T09:07:42;33.80;73.30
3705;DHT22;1868;48.918;9.438;2023-09-12T09:10:15;33.70;73.30
3705;DHT22;1868;48.918;9.438;2023-09-12T09:12:53;33.40;74.80
3705;DHT22;1868;48.918;9.438;2023-09-12T09:15:23;33.20;76.50
3705;DHT22;1868;48.918;9.438;2023-09-12T09:17:57;33.90;74.80
3705;DHT22;1868;48.918;9.438;2023-09-12T09:20:29;33.90;72.60
3705;DHT22;1868;48.918;9.438;2023-09-12T09:23:01;33.90;72.60
3705;DHT22;1868;48.918;9.438;2023-09-12T09:25:39;34.10;71.30
3705;DHT22;1868;48.918;9.438;2023-09-12T09:28:18;34.80;70.00
3705;DHT22;1868;48.918;9.438;2023-09-12T09:30:49;35.50;66.30
3705;DHT22;1868;48.918;9.438;2023-09-12T09:33:22;36.10;64.20
3705;DHT22;1868;48.918;9.438;2023-09-12T09:36:02;36.70;62.30
3705;DHT22;1868;48.918;9.438;2023-09-12T09:38:31;37.60;60.90
3705;DHT22;1868;48.918;9.438;2023-09-12T09:41:05;38.10;59.00
3705;DHT22;1868;48.918;9.438;2023-09-12T09:43:35;38.60;58.10
3705;DHT22;1868;48.918;9.438;2023-09-12T09:46:07;39.30;56.30
3705;DHT22;1868;48.918;9.438;2023-09-12T09:48:48;40.10;56.40
3705;DHT22;1868;48.918;9.438;2023-09-12T09:51:26;40.20;51.30
3705;DHT22;1868;48.918;9.438;2023-09-12T09:53:56;40.20;54.20
3705;DHT22;1868;48.918;9.438;2023-09-12T09:56:25;40.70;51.10
3705;DHT22;1868;48.918;9.438;2023-09-12T09:58:56;40.80;51.10
3705;DHT22;1868;48.918;9.438;2023-09-12T10:01:28;41.30;52.50
3705;DHT22;1868;48.918;9.438;2023-09-12T10:04:00;41.70;49.60
3705;DHT22;1868;48.918;9.438;2023-09-12T10:06:31;41.90;51.40
3705;DHT22;1868;48.918;9.438;2023-09-12T10:09:06;41.70;47.60
3705;DHT22;1868;48.918;9.438;2023-09-12T10:11:39;41.70;50.00
3705;DHT22;1868;48.918;9.438;2023-09-12T10:14:11;42.00;50.30
3705;DHT22;1868;48.918;9.438;2023-09-12T10:16:45;42.30;47.50
3705;DHT22;1868;48.918;9.438;2023-09-12T10:19:22;42.20;47.90
3705;DHT22;1868;48.918;9.438;2023-09-12T10:21:58;42.70;46.40
3705;DHT22;1868;48.918;9.438;2023-09-12T10:24:31;42.60;45.60
3705;DHT22;1868;48.918;9.438;2023-09-12T10:27:05;43.00;47.60
3705;DHT22;1868;48.918;9.438;2023-09-12T10:29:40;43.50;44.70
3705;DHT22;1868;48.918;9.438;2023-09-12T10:32:14;43.40;47.30
3705;DHT22;1868;48.918;9.438;2023-09-12T10:34:47;43.50;46.20
3705;DHT22;1868;48.918;9.438;2023-09-12T10:37:21;43.80;44.10
3705;DHT22;1868;48.918;9.438;2023-09-12T10:39:53;43.80;44.00
3705;DHT22;1868;48.918;9.438;2023-09-12T10:42:26;44.30;43.60
3705;DHT22;1868;48.918;9.438;2023-09-12T10:44:59;44.80;42.00
3705;DHT22;1868;48.918;9.438;2023-09-12T10:47:31;45.10;41.80
3705;DHT22;1868;48.918;9.438;2023-09-12T10:50:01;45.00;41.80
3705;DHT22;1868;48.918;9.438;2023-09-12T10:52:31;45.20;42.60
3705;DHT22;1868;48.918;9.438;2023-09-12T10:55:04;45.40;42.60
3705;DHT22;1868;48.918;9.438;2023-09-12T10:57:34;44.90;42.70
3705;DHT22;1868;48.918;9.438;2023-09-12T11:00:13;44.70;41.80
3705;DHT22;1868;48.918;9.438;2023-09-12T11:02:42;44.50;42.70
3705;DHT22;1868;48.918;9.438;2023-09-12T11:05:36;44.70;43.30
3705;DHT22;1868;48.918;9.438;2023-09-12T11:08:06;45.00;40.50
3705;DHT22;1868;48.918;9.438;2023-09-12T11:10:36;44.30;40.50
3705;DHT22;1868;48.918;9.438;2023-09-12T11:13:05;43.40;44.10
3705;DHT22;1868;48.918;9.438;2023-09-12T11:15:36;43.30;44.10
3705;DHT22;1868;48.918;9.438;2023-09-12T11:18:08;43.40;42.70
3705;DHT22;1868;48.918;9.438;2023-09-12T11:20:51;43.30;43.00
3705;DHT22;1868;48.918;9.438;2023-09-12T11:23:22;43.60;42.30
3705;DHT22;1868;48.918;9.438;2023-09-12T11:26:03;43.80;41.80
3705;DHT22;1868;48.918;9.438;2023-09-12T11:28:41;43.80;40.60
3705;DHT22;1868;48.918;9.438;2023-09-12T11:31:24;43.80;42.00
3705;DHT22;1868;48.918;9.438;2023-09-12T11:34:00;44.30;40.80
3705;DHT22;1868;48.918;9.438;2023-09-12T11:36:30;44.60;42.10
3705;DHT22;1868;48.918;9.438;2023-09-12T11:39:02;44.40;38.90
3705;DHT22;1868;48.918;9.438;2023-09-12T11:41:40;44.30;40.30
3705;DHT22;1868;48.918;9.438;2023-09-12T11:44:09;44.60;36.80
3705;DHT22;1868;48.918;9.438;2023-09-12T11:46:40;44.00;38.80
3705;DHT22;1868;48.918;9.438;2023-09-12T11:49:10;44.20;39.10
3705;DHT22;1868;48.918;9.438;2023-09-12T11:51:46;44.40;39.50
3705;DHT22;1868;48.918;9.438;2023-09-12T11:54:24;44.70;39.20
3705;DHT22;1868;48.918;9.438;2023-09-12T11:56:54;44.60;39.70
3705;DHT22;1868;48.918;9.438;2023-09-12T11:59:23;44.70;38.20
3705;DHT22;1868;48.918;9.438;2023-09-12T12:01:54;44.70;39.20
3705;DHT22;1868;48.918;9.438;2023-09-12T12:04:24;44.80;38.90
3705;DHT22;1868;48.918;9.438;2023-09-12T12:06:53;45.10;36.90
3705;DHT22;1868;48.918;9.438;2023-09-12T12:09:23;44.60;37.10
3705;DHT22;1868;48.918;9.438;2023-09-12T12:11:52;44.50;39.20
3705;DHT22;1868;48.918;9.438;2023-09-12T12:14:21;44.80;38.00
3705;DHT22;1868;48.918;9.438;2023-09-12T12:16:49;44.90;37.70
3705;DHT22;1868;48.918;9.438;2023-09-12T12:19:20;44.90;37.40
3705;DHT22;1868;48.918;9.438;2023-09-12T12:21:48;44.50;37.70
3705;DHT22;1868;48.918;9.438;2023-09-12T12:24:17;44.50;37.60
3705;DHT22;1868;48.918;9.438;2023-09-12T12:26:46;44.00;38.60
3705;DHT22;1868;48.918;9.438;2023-09-12T12:29:15;44.00;38.60
3705;DHT22;1868;48.918;9.438;2023-09-12T12:31:43;43.70;36.00
3705;DHT22;1868;48.918;9.438;2023-09-12T12:34:13;43.40;38.00
3705;DHT22;1868;48.918;9.438;2023-09-12T12:37:03;43.70;37.30
3705;DHT22;1868;48.918;9.438;2023-09-12T12:39:32;44.00;37.90
3705;DHT22;1868;48.918;9.438;2023-09-12T12:42:02;43.90;38.00
3705;DHT22;1868;48.918;9.438;2023-09-12T12:44:34;44.30;38.00
3705;DHT22;1868;48.918;9.438;2023-09-12T12:47:08;44.60;37.30
3705;DHT22;1868;48.918;9.438;2023-09-12T12:49:39;44.80;36.50
3705;DHT22;1868;48.918;9.438;2023-09-12T12:52:10;44.80;36.80
3705;DHT22;1868;48.918;9.438;2023-09-12T12:54:42;44.90;35.70
3705;DHT22;1868;48.918;9.438;2023-09-12T12:57:12;44.70;36.80
3705;DHT22;1868;48.918;9.438;2023-09-12T12:59:45;44.80;34.80
3705;DHT22;1868;48.918;9.438;2023-09-12T13:02:14;44.60;35.70
3705;DHT22;1868;48.918;9.438;2023-09-12T13:04:43;44.40;36.90
3705;DHT22;1868;48.918;9.438;2023-09-12T13:07:14;44.20;37.60
3705;DHT22;1868;48.918;9.438;2023-09-12T13:09:42;44.30;39.10
3705;DHT22;1868;48.918;9.438;2023-09-12T13:12:11;44.40;37.40
3705;DHT22;1868;48.918;9.438;2023-09-12T13:14:41;44.40;37.10
3705;DHT22;1868;48.918;9.438;2023-09-12T13:17:11;44.10;38.00
3705;DHT22;1868;48.918;9.438;2023-09-12T13:19:40;44.30;37.70
3705;DHT22;1868;48.918;9.438;2023-09-12T13:22:10;44.20;36.50
3705;DHT22;1868;48.918;9.438;2023-09-12T13:24:40;43.90;36.80
3705;DHT22;1868;48.918;9.438;2023-09-12T13:27:09;43.90;36.90
3705;DHT22;1868;48.918;9.438;2023-09-12T13:29:37;43.90;37.40
3705;DHT22;1868;48.918;9.438;2023-09-12T13:32:07;43.80;37.10
3705;DHT22;1868;48.918;9.438;2023-09-12T13:34:37;43.50;37.90
3705;DHT22;1868;48.918;9.438;2023-09-12T13:37:07;43.30;37.30
3705;DHT22;1868;48.918;9.438;2023-09-12T13:39:40;43.40;35.90
3705;DHT22;1868;48.918;9.438;2023-09-12T13:42:14;43.70;38.60
3705;DHT22;1868;48.918;9.438;2023-09-12T13:44:47;43.00;38.60
3705;DHT22;1868;48.918;9.438;2023-09-12T13:47:16;41.90;39.80
3705;DHT22;1868;48.918;9.438;2023-09-12T13:49:49;41.10;41.50
3705;DHT22;1868;48.918;9.438;2023-09-12T13:52:19;40.90;42.10
3705;DHT22;1868;48.918;9.438;2023-09-12T13:54:49;41.00;42.10
3705;DHT22;1868;48.918;9.438;2023-09-12T13:57:19;40.90;41.70
3705;DHT22;1868;48.918;9.438;2023-09-12T13:59:47;40.90;40.90
3705;DHT22;1868;48.918;9.438;2023-09-12T14:02:15;40.90;42.10
3705;DHT22;1868;48.918;9.438;2023-09-12T14:04:46;41.00;42.10
3705;DHT22;1868;48.918;9.438;2023-09-12T14:07:25;41.00;41.70
3705;DHT22;1868;48.918;9.438;2023-09-12T14:09:56;40.60;42.30
3705;DHT22;1868;48.918;9.438;2023-09-12T14:12:25;40.40;43.20
3705;DHT22;1868;48.918;9.438;2023-09-12T14:14:55;40.30;43.30
3705;DHT22;1868;48.918;9.438;2023-09-12T14:17:34;40.20;44.00
3705;DHT22;1868;48.918;9.438;2023-09-12T14:20:16;40.10;44.40
3705;DHT22;1868;48.918;9.438;2023-09-12T14:22:45;40.00;44.90
3705;DHT22;1868;48.918;9.438;2023-09-12T14:25:15;39.80;44.90
3705;DHT22;1868;48.918;9.438;2023-09-12T14:27:45;39.70;44.60
3705;DHT22;1868;48.918;9.438;2023-09-12T14:30:13;39.30;45.50
3705;DHT22;1868;48.918;9.438;2023-09-12T14:32:43;38.70;47.50
3705;DHT22;1868;48.918;9.438;2023-09-12T14:35:11;38.60;47.60
3705;DHT22;1868;48.918;9.438;2023-09-12T14:37:40;38.40;48.10
3705;DHT22;1868;48.918;9.438;2023-09-12T14:40:10;38.20;48.40
3705;DHT22;1868;48.918;9.438;2023-09-12T14:42:44;38.00;48.80
3705;DHT22;1868;48.918;9.438;2023-09-12T14:45:14;37.30;50.50
3705;DHT22;1868;48.918;9.438;2023-09-12T14:47:43;36.80;51.70
3705;DHT22;1868;48.918;9.438;2023-09-12T14:50:11;36.50;52.50
3705;DHT22;1868;48.918;9.438;2023-09-12T14:52:40;36.10;53.70
3705;DHT22;1868;48.918;9.438;2023-09-12T14:55:10;35.70;54.90
3705;DHT22;1868;48.918;9.438;2023-09-12T14:57:41;35.30;56.30
3705;DHT22;1868;48.918;9.438;2023-09-12T15:00:13;34.80;57.50
3705;DHT22;1868;48.918;9.438;2023-09-12T15:02:42;34.50;58.60
3705;DHT22;1868;48.918;9.438;2023-09-12T15:05:10;34.20;59.00
3705;DHT22;1868;48.918;9.438;2023-09-12T15:07:39;33.90;59.60
3705;DHT22;1868;48.918;9.438;2023-09-12T15:10:10;33.60;60.70
3705;DHT22;1868;48.918;9.438;2023-09-12T15:12:39;33.30;63.50
3705;DHT22;1868;48.918;9.438;2023-09-12T15:15:11;33.10;63.30
3705;DHT22;1868;48.918;9.438;2023-09-12T15:17:39;32.80;65.90
3705;DHT22;1868;48.918;9.438;2023-09-12T15:20:10;32.60;65.90
3705;DHT22;1868;48.918;9.438;2023-09-12T15:22:39;32.40;66.40
3705;DHT22;1868;48.918;9.438;2023-09-12T15:25:12;32.20;68.50
3705;DHT22;1868;48.918;9.438;2023-09-12T15:27:41;32.10;68.30
3705;DHT22;1868;48.918;9.438;2023-09-12T15:30:12;32.00;75.90
3705;DHT22;1868;48.918;9.438;2023-09-12T15:32:42;31.80;76.70
3705;DHT22;1868;48.918;9.438;2023-09-12T15:35:10;31.70;75.00
3705;DHT22;1868;48.918;9.438;2023-09-12T15:37:40;31.60;79.90
3705;DHT22;1868;48.918;9.438;2023-09-12T15:40:10;31.50;78.20
3705;DHT22;1868;48.918;9.438;2023-09-12T15:42:39;31.30;77.40
3705;DHT22;1868;48.918;9.438;2023-09-12T15:45:10;31.30;78.20
3705;DHT22;1868;48.918;9.438;2023-09-12T15:47:40;31.10;80.40
3705;DHT22;1868;48.918;9.438;2023-09-12T15:50:10;31.00;80.20
3705;DHT22;1868;48.918;9.438;2023-09-12T15:52:38;30.90;82.30
3705;DHT22;1868;48.918;9.438;2023-09-12T15:55:09;30.70;80.20
3705;DHT22;1868;48.918;9.438;2023-09-12T15:57:39;30.60;82.80
3705;DHT22;1868;48.918;9.438;2023-09-12T16:00:12;30.50;85.30
3705;DHT22;1868;48.918;9.438;2023-09-12T16:02:41;30.40;87.50
3705;DHT22;1868;48.918;9.438;2023-09-12T16:05:10;30.30;85.60
3705;DHT22;1868;48.918;9.438;2023-09-12T16:07:40;30.20;85.80
3705;DHT22;1868;48.918;9.438;2023-09-12T16:10:09;30.10;87.70
3705;DHT22;1868;48.918;9.438;2023-09-12T16:12:39;30.10;84.90
3705;DHT22;1868;48.918;9.438;2023-09-12T16:15:14;30.00;89.00
3705;DHT22;1868;48.918;9.438;2023-09-12T16:17:42;29.90;88.40
3705;DHT22;1868;48.918;9.438;2023-09-12T16:20:12;29.80;90.40
3705;DHT22;1868;48.918;9.438;2023-09-12T16:22:41;29.80;86.60
3705;DHT22;1868;48.918;9.438;2023-09-12T16:25:10;29.80;90.80
3705;DHT22;1868;48.918;9.438;2023-09-12T16:27:38;29.80;88.60
3705;DHT22;1868;48.918;9.438;2023-09-12T16:30:07;29.90;86.40
3705;DHT22;1868;48.918;9.438;2023-09-12T16:32:39;30.10;89.90
3705;DHT22;1868;48.918;9.438;2023-09-12T16:35:08;30.10;92.80